Time;durP1;ratioP1;P1;durP2;ratioP2;P2;SDS_P1;SDS_P2;PMS_P1;PMS_P2;Temp;Humidity;BMP_temperature;BMP_pressure;BME280_temperature;BME280_humidity;BME280_pressure;Samples;Min_cycle;Max_cycle;Signal;HPM_P1;HPM_P2
2021/07/21 00:02:20;;;;;;;;;;;16.70;99.90;;;;;;5087747;28;19920;-93
2021/07/21 00:04:46;;;;;;;;;;;16.70;99.90;;;;;;5078226;28;19919;-93
2021/07/21 00:07:13;;;;;;;;;;;16.70;99.90;;;;;;5082775;28;19978;-93
2021/07/21 00:09:38;;;;;;;;;;;16.60;99.90;;;;;;5077140;28;19924;-93
2021/07/21 00:14:48;;;;;;;;;;;16.40;99.90;;;;;;5105744;28;19946;-93
2021/07/21 00:17:23;;;;;;;;;;;16.40;99.90;;;;;;5104252;28;19923;-94
2021/07/21 00:20:08;;;;;;;;;;;16.50;99.90;;;;;;5098399;28;19927;-94
2021/07/21 00:22:35;;;;;;;;;;;16.50;99.90;;;;;;5090116;28;19920;-93
2021/07/21 00:25:00;;;;;;;;;;;16.50;99.90;;;;;;5082679;28;19970;-93
2021/07/21 00:27:27;;;;;;;;;;;16.50;99.90;;;;;;5088943;28;20339;-93
2021/07/21 00:29:52;;;;;;;;;;;16.60;99.90;;;;;;5095965;28;19924;-93
2021/07/21 00:32:18;;;;;;;;;;;16.70;99.90;;;;;;5074747;28;20382;-93
2021/07/21 00:34:44;;;;;;;;;;;16.70;99.90;;;;;;5098690;28;19924;-94
2021/07/21 00:37:10;;;;;;;;;;;16.60;99.90;;;;;;5103388;28;20314;-93
2021/07/21 00:39:35;;;;;;;;;;;16.60;99.90;;;;;;5085600;28;19921;-94
2021/07/21 00:42:01;;;;;;;;;;;16.60;99.90;;;;;;5094519;28;20276;-93
2021/07/21 00:44:27;;;;;;;;;;;16.50;99.90;;;;;;5083550;28;19923;-94
2021/07/21 00:46:53;;;;;;;;;;;16.50;99.90;;;;;;5100368;28;20018;-94
2021/07/21 00:49:24;;;;;;;;;;;16.50;99.90;;;;;;5082537;28;19930;-94
2021/07/21 00:51:50;;;;;;;;;;;16.60;99.90;;;;;;5098324;28;19920;-94
2021/07/21 00:54:16;;;;;;;;;;;16.60;99.90;;;;;;5091947;28;19920;-94
2021/07/21 00:56:42;;;;;;;;;;;16.70;99.90;;;;;;5082272;28;19976;-94
2021/07/21 00:59:10;;;;;;;;;;;16.70;99.90;;;;;;5090409;28;19924;-95
2021/07/21 01:01:36;;;;;;;;;;;16.70;99.90;;;;;;5087379;28;19925;-95
2021/07/21 01:04:02;;;;;;;;;;;16.70;99.90;;;;;;5088278;28;19968;-93
2021/07/21 01:06:28;;;;;;;;;;;16.70;99.90;;;;;;5080068;28;19934;-94
2021/07/21 01:08:54;;;;;;;;;;;16.80;99.90;;;;;;5085824;28;20388;-94
2021/07/21 01:11:27;;;;;;;;;;;16.80;99.90;;;;;;5076837;28;19924;-94
2021/07/21 01:13:56;;;;;;;;;;;16.80;99.90;;;;;;5113764;27;20361;-94
2021/07/21 01:16:25;;;;;;;;;;;16.80;99.90;;;;;;5079049;28;20326;-94
2021/07/21 01:18:56;;;;;;;;;;;16.80;99.90;;;;;;5102820;28;20339;-94
2021/07/21 01:21:49;;;;;;;;;;;16.80;99.90;;;;;;5104798;28;19920;-94
2021/07/21 01:24:21;;;;;;;;;;;16.80;99.90;;;;;;5075416;28;20004;-94
2021/07/21 01:26:57;;;;;;;;;;;16.80;99.90;;;;;;5087193;28;19928;-94
2021/07/21 01:29:26;;;;;;;;;;;16.80;99.90;;;;;;5079421;28;19966;-95
2021/07/21 01:31:54;;;;;;;;;;;16.80;99.90;;;;;;5107890;28;20335;-94
2021/07/21 01:34:21;;;;;;;;;;;16.80;99.90;;;;;;5095650;28;19919;-94
2021/07/21 01:36:51;;;;;;;;;;;16.80;99.90;;;;;;5099725;28;19926;-94
2021/07/21 01:39:19;;;;;;;;;;;16.80;99.90;;;;;;5098699;28;19920;-94
2021/07/21 01:41:47;;;;;;;;;;;16.80;99.90;;;;;;5074693;28;19930;-95
2021/07/21 01:44:15;;;;;;;;;;;16.80;99.90;;;;;;5094500;28;19955;-94
2021/07/21 01:46:41;;;;;;;;;;;16.80;99.90;;;;;;5086823;28;19924;-94
2021/07/21 01:49:09;;;;;;;;;;;16.90;99.90;;;;;;5084815;28;19923;-94
2021/07/21 01:51:35;;;;;;;;;;;16.90;99.90;;;;;;5102986;28;19935;-94
2021/07/21 01:54:02;;;;;;;;;;;16.80;99.90;;;;;;5075712;28;19917;-94
2021/07/21 01:56:29;;;;;;;;;;;16.80;99.90;;;;;;5094593;28;19961;-94
2021/07/21 01:58:55;;;;;;;;;;;16.90;99.90;;;;;;5099057;28;19916;-94
2021/07/21 02:01:27;;;;;;;;;;;16.90;99.90;;;;;;5105103;28;19950;-94
2021/07/21 02:03:55;;;;;;;;;;;16.80;99.90;;;;;;5094391;28;20069;-95
2021/07/21 02:06:20;;;;;;;;;;;16.80;99.90;;;;;;5106921;28;19924;-95
2021/07/21 02:08:47;;;;;;;;;;;16.70;99.90;;;;;;5092832;28;19974;-94
2021/07/21 02:11:13;;;;;;;;;;;16.80;99.90;;;;;;5086168;28;20629;-95
2021/07/21 02:13:39;;;;;;;;;;;16.80;99.90;;;;;;5062099;28;19924;-94
2021/07/21 02:16:05;;;;;;;;;;;16.80;99.90;;;;;;5078835;28;19920;-94
2021/07/21 02:18:31;;;;;;;;;;;16.80;99.90;;;;;;5104651;28;19920;-94
2021/07/21 02:21:00;;;;;;;;;;;16.70;99.90;;;;;;5099855;28;19923;-94
2021/07/21 02:23:27;;;;;;;;;;;16.70;99.90;;;;;;5097232;28;20003;-94
2021/07/21 02:25:56;;;;;;;;;;;16.70;99.90;;;;;;5077021;28;20425;-94
2021/07/21 02:28:22;;;;;;;;;;;16.50;99.90;;;;;;5107971;28;20442;-95
2021/07/21 02:30:51;;;;;;;;;;;16.50;99.90;;;;;;5090330;28;19927;-94
2021/07/21 02:33:31;;;;;;;;;;;16.50;99.90;;;;;;5098396;28;19949;-94
2021/07/21 02:35:57;;;;;;;;;;;16.50;99.90;;;;;;5090195;28;20314;-94
2021/07/21 02:38:22;;;;;;;;;;;16.40;99.90;;;;;;5053417;28;20019;-95
2021/07/21 02:40:48;;;;;;;;;;;16.40;99.90;;;;;;5064845;28;19938;-93
2021/07/21 02:43:14;;;;;;;;;;;16.30;99.90;;;;;;5085706;28;19923;-94
2021/07/21 02:45:40;;;;;;;;;;;16.30;99.90;;;;;;5059403;28;19982;-94
2021/07/21 02:48:06;;;;;;;;;;;16.30;99.90;;;;;;5072612;28;19923;-94
2021/07/21 02:50:32;;;;;;;;;;;16.30;99.90;;;;;;5079238;28;20038;-94
2021/07/21 02:53:02;;;;;;;;;;;16.30;99.90;;;;;;5070190;28;19930;-95
2021/07/21 02:55:28;;;;;;;;;;;16.20;99.90;;;;;;5084849;28;20395;-94
2021/07/21 02:57:57;;;;;;;;;;;16.20;99.90;;;;;;5099105;28;20030;-94
2021/07/21 03:00:26;;;;;;;;;;;16.20;99.90;;;;;;5088545;28;19924;-94
2021/07/21 03:02:52;;;;;;;;;;;16.20;99.90;;;;;;5091330;28;19920;-94
2021/07/21 03:05:19;;;;;;;;;;;16.10;99.90;;;;;;5102332;28;20413;-93
2021/07/21 03:07:47;;;;;;;;;;;16.10;99.90;;;;;;5075470;28;19931;-94
2021/07/21 03:10:14;;;;;;;;;;;16.10;99.90;;;;;;5092164;28;19920;-94
2021/07/21 03:12:42;;;;;;;;;;;16.10;99.90;;;;;;5089684;28;19920;-93
2021/07/21 03:15:12;;;;;;;;;;;16.10;99.90;;;;;;5100403;28;19924;-94
2021/07/21 03:17:38;;;;;;;;;;;16.00;99.90;;;;;;5099404;28;19970;-94
2021/07/21 03:20:05;;;;;;;;;;;16.00;99.90;;;;;;5090707;28;19924;-94
2021/07/21 03:22:31;;;;;;;;;;;16.00;99.90;;;;;;5073002;28;20344;-94
2021/07/21 03:24:57;;;;;;;;;;;16.00;99.90;;;;;;5092965;28;19990;-94
2021/07/21 03:27:24;;;;;;;;;;;16.00;99.90;;;;;;5100656;28;20410;-94
2021/07/21 03:29:51;;;;;;;;;;;16.00;99.90;;;;;;5092866;28;19926;-95
2021/07/21 03:32:22;;;;;;;;;;;16.00;99.90;;;;;;5109197;28;20018;-94
2021/07/21 03:34:49;;;;;;;;;;;15.90;99.90;;;;;;5097788;28;20382;-93
2021/07/21 03:37:15;;;;;;;;;;;15.90;99.90;;;;;;5087310;28;20348;-94
2021/07/21 03:39:42;;;;;;;;;;;15.90;99.90;;;;;;5092790;28;20366;-94
2021/07/21 03:42:09;;;;;;;;;;;15.80;99.90;;;;;;5096115;28;19930;-94
2021/07/21 03:44:36;;;;;;;;;;;15.80;99.90;;;;;;5093210;28;19919;-95
2021/07/21 03:47:02;;;;;;;;;;;15.80;99.90;;;;;;5101895;28;20279;-94
2021/07/21 03:49:29;;;;;;;;;;;15.80;99.90;;;;;;5085409;28;19928;-94
2021/07/21 03:51:55;;;;;;;;;;;15.80;99.90;;;;;;5085824;28;19920;-93
2021/07/21 03:54:25;;;;;;;;;;;15.90;99.90;;;;;;5092005;28;19927;-94
2021/07/21 03:56:51;;;;;;;;;;;15.90;99.90;;;;;;5072646;28;19920;-94
2021/07/21 03:59:19;;;;;;;;;;;15.80;99.90;;;;;;5086814;28;19955;-94
2021/07/21 04:01:45;;;;;;;;;;;15.80;99.90;;;;;;5104558;28;19926;-94
2021/07/21 04:04:15;;;;;;;;;;;15.80;99.90;;;;;;5080366;28;20336;-94
2021/07/21 04:06:41;;;;;;;;;;;15.80;99.90;;;;;;5108806;28;19924;-94
2021/07/21 04:09:09;;;;;;;;;;;15.80;99.90;;;;;;5092293;28;19955;-95
2021/07/21 04:11:36;;;;;;;;;;;15.80;99.90;;;;;;5094453;28;20392;-94
2021/07/21 04:14:03;;;;;;;;;;;15.80;99.90;;;;;;5068026;28;19920;-94
2021/07/21 04:16:31;;;;;;;;;;;15.80;99.90;;;;;;5091254;28;19923;-94
2021/07/21 04:18:58;;;;;;;;;;;15.70;99.90;;;;;;5099716;28;19938;-95
2021/07/21 04:21:24;;;;;;;;;;;15.80;99.90;;;;;;5085286;28;19924;-94
2021/07/21 04:23:50;;;;;;;;;;;15.80;99.90;;;;;;5109311;28;19958;-94
2021/07/21 04:26:17;;;;;;;;;;;15.80;99.90;;;;;;5077902;28;19924;-94
2021/07/21 04:28:43;;;;;;;;;;;15.80;99.90;;;;;;5105185;28;19928;-94
2021/07/21 04:31:09;;;;;;;;;;;15.80;99.90;;;;;;5091318;28;19924;-94
2021/07/21 04:33:35;;;;;;;;;;;15.80;99.90;;;;;;5106777;28;19974;-94
2021/07/21 04:36:02;;;;;;;;;;;15.80;99.90;;;;;;5089560;28;19967;-94
2021/07/21 04:38:28;;;;;;;;;;;15.80;99.90;;;;;;5077589;28;19972;-95
2021/07/21 04:40:55;;;;;;;;;;;15.90;99.90;;;;;;5108022;28;19928;-94
2021/07/21 04:43:21;;;;;;;;;;;15.90;99.90;;;;;;5109717;28;20310;-94
2021/07/21 04:45:48;;;;;;;;;;;15.90;99.90;;;;;;5090196;28;19924;-94
2021/07/21 04:48:14;;;;;;;;;;;16.00;99.90;;;;;;5071877;28;19935;-94
2021/07/21 04:50:42;;;;;;;;;;;16.10;99.90;;;;;;5100017;28;19965;-94
2021/07/21 04:53:09;;;;;;;;;;;16.10;99.90;;;;;;5103646;28;19947;-95
2021/07/21 04:55:35;;;;;;;;;;;16.10;99.90;;;;;;5077269;28;19989;-94
2021/07/21 04:58:00;;;;;;;;;;;16.10;99.90;;;;;;5080564;28;19923;-94
2021/07/21 05:00:26;;;;;;;;;;;16.10;99.90;;;;;;5091460;28;19926;-94
2021/07/21 05:02:52;;;;;;;;;;;16.10;99.90;;;;;;5085787;28;20431;-94
2021/07/21 05:05:17;;;;;;;;;;;16.10;99.90;;;;;;5103089;28;19974;-93
2021/07/21 05:07:43;;;;;;;;;;;16.10;99.90;;;;;;5081881;28;20401;-94
2021/07/21 05:10:09;;;;;;;;;;;16.10;99.90;;;;;;5094020;28;19924;-94
2021/07/21 05:12:35;;;;;;;;;;;16.10;99.90;;;;;;5095517;28;19977;-94
2021/07/21 05:15:00;;;;;;;;;;;16.20;99.90;;;;;;5095822;28;19927;-94
2021/07/21 05:17:26;;;;;;;;;;;16.20;99.90;;;;;;5094772;28;19920;-94
2021/07/21 05:19:52;;;;;;;;;;;16.20;99.90;;;;;;5099464;28;20043;-94
2021/07/21 05:22:18;;;;;;;;;;;16.20;99.90;;;;;;5084287;28;19965;-94
2021/07/21 05:24:44;;;;;;;;;;;16.20;99.90;;;;;;5107822;27;20022;-93
2021/07/21 05:27:09;;;;;;;;;;;16.20;99.90;;;;;;5100562;28;20026;-94
2021/07/21 05:29:36;;;;;;;;;;;16.30;99.90;;;;;;5078742;28;19930;-93
2021/07/21 05:32:03;;;;;;;;;;;16.30;99.90;;;;;;5110092;28;19964;-94
2021/07/21 05:34:29;;;;;;;;;;;16.30;99.90;;;;;;5085324;28;19930;-94
2021/07/21 05:36:55;;;;;;;;;;;16.40;99.90;;;;;;5077597;28;20282;-94
2021/07/21 05:39:21;;;;;;;;;;;16.40;99.90;;;;;;5070666;28;20276;-95
2021/07/21 05:41:47;;;;;;;;;;;16.50;99.90;;;;;;5090899;28;19949;-95
2021/07/21 05:44:13;;;;;;;;;;;16.50;99.90;;;;;;5077204;28;20401;-94
2021/07/21 05:46:38;;;;;;;;;;;16.60;99.90;;;;;;5108244;28;19927;-94
2021/07/21 05:49:04;;;;;;;;;;;16.60;99.90;;;;;;5094199;28;19930;-94
2021/07/21 05:51:30;;;;;;;;;;;16.70;99.90;;;;;;5093434;28;19920;-94
2021/07/21 05:53:57;;;;;;;;;;;16.70;99.90;;;;;;5078376;28;19923;-94
2021/07/21 05:56:23;;;;;;;;;;;16.70;99.90;;;;;;5089102;28;19923;-94
2021/07/21 05:58:49;;;;;;;;;;;16.80;99.90;;;;;;5088179;28;19920;-94
2021/07/21 06:01:15;;;;;;;;;;;16.80;99.90;;;;;;5111252;28;19926;-94
2021/07/21 06:03:40;;;;;;;;;;;16.80;99.90;;;;;;5094083;28;19931;-94
2021/07/21 06:06:07;;;;;;;;;;;16.90;99.90;;;;;;5062921;28;19941;-94
2021/07/21 06:08:32;;;;;;;;;;;16.90;99.90;;;;;;5096849;28;19931;-93
2021/07/21 06:10:58;;;;;;;;;;;17.00;99.90;;;;;;5111071;28;19924;-93
2021/07/21 06:13:25;;;;;;;;;;;17.00;99.90;;;;;;5110869;28;19927;-93
2021/07/21 06:15:51;;;;;;;;;;;17.10;99.90;;;;;;5093877;28;19930;-93
2021/07/21 06:18:17;;;;;;;;;;;17.10;99.90;;;;;;5110987;28;19920;-93
2021/07/21 06:20:43;;;;;;;;;;;17.20;99.90;;;;;;5112470;28;19973;-94
2021/07/21 06:23:08;;;;;;;;;;;17.20;99.90;;;;;;5111724;28;20502;-94
2021/07/21 06:25:34;;;;;;;;;;;17.20;99.90;;;;;;5085640;28;19943;-93
2021/07/21 06:28:00;;;;;;;;;;;17.20;99.90;;;;;;5083638;27;19927;-94
2021/07/21 06:30:25;;;;;;;;;;;17.30;99.90;;;;;;5097416;27;19996;-94
2021/07/21 06:32:51;;;;;;;;;;;17.30;99.90;;;;;;5098274;27;20359;-96
2021/07/21 06:35:17;;;;;;;;;;;17.40;99.90;;;;;;5097562;27;19958;-96
2021/07/21 06:37:45;;;;;;;;;;;17.40;99.90;;;;;;5081069;27;19927;-96
2021/07/21 06:40:11;;;;;;;;;;;17.50;99.90;;;;;;5113533;27;19924;-95
2021/07/21 06:42:36;;;;;;;;;;;17.50;99.90;;;;;;5148112;27;19919;-96
2021/07/21 06:45:03;;;;;;;;;;;17.60;99.90;;;;;;5113781;27;20370;-96
2021/07/21 06:47:28;;;;;;;;;;;17.70;99.90;;;;;;5092496;27;19923;-95
2021/07/21 06:49:57;;;;;;;;;;;17.70;99.90;;;;;;5113898;27;19927;-96
2021/07/21 06:52:24;;;;;;;;;;;17.80;99.90;;;;;;5098477;27;19923;-96
2021/07/21 06:54:50;;;;;;;;;;;17.80;99.90;;;;;;5106801;27;19941;-96
2021/07/21 06:57:16;;;;;;;;;;;17.90;99.90;;;;;;5099699;27;19923;-96
2021/07/21 06:59:41;;;;;;;;;;;17.90;99.90;;;;;;5094864;28;19928;-95
2021/07/21 07:02:08;;;;;;;;;;;17.90;99.90;;;;;;5100183;27;20438;-95
2021/07/21 07:04:34;;;;;;;;;;;18.00;99.90;;;;;;5096172;27;19931;-96
2021/07/21 07:06:59;;;;;;;;;;;18.00;99.90;;;;;;5092181;28;19920;-96
2021/07/21 07:09:25;;;;;;;;;;;18.10;99.90;;;;;;5097324;27;20405;-94
2021/07/21 07:11:52;;;;;;;;;;;18.10;99.90;;;;;;5096831;27;19973;-95
2021/07/21 07:14:19;;;;;;;;;;;18.20;99.90;;;;;;5097053;27;19927;-95
2021/07/21 07:16:45;;;;;;;;;;;18.20;99.90;;;;;;5112591;27;19919;-95
2021/07/21 07:19:11;;;;;;;;;;;18.20;99.90;;;;;;5147820;27;19992;-95
2021/07/21 07:21:37;;;;;;;;;;;18.30;99.90;;;;;;5076392;28;19927;-95
2021/07/21 07:24:03;;;;;;;;;;;18.30;99.90;;;;;;5112748;27;19931;-96
2021/07/21 07:26:28;;;;;;;;;;;18.30;99.90;;;;;;5095131;27;19978;-96
2021/07/21 07:28:55;;;;;;;;;;;18.40;99.90;;;;;;5076852;27;20067;-96
2021/07/21 07:31:21;;;;;;;;;;;18.40;99.90;;;;;;5095370;27;19923;-96
2021/07/21 07:33:47;;;;;;;;;;;18.40;99.90;;;;;;5096576;27;20281;-96
2021/07/21 07:36:13;;;;;;;;;;;18.50;99.90;;;;;;5074960;28;20016;-96
2021/07/21 07:38:39;;;;;;;;;;;18.50;99.90;;;;;;5123425;27;20020;-96
2021/07/21 07:41:05;;;;;;;;;;;18.60;99.90;;;;;;5096373;27;20272;-96
2021/07/21 07:43:31;;;;;;;;;;;18.60;99.90;;;;;;5095637;28;19927;-95
2021/07/21 07:45:58;;;;;;;;;;;18.70;99.90;;;;;;5093982;27;19919;-96
2021/07/21 07:48:27;;;;;;;;;;;18.70;99.90;;;;;;5120770;27;19945;-96
2021/07/21 07:50:53;;;;;;;;;;;18.70;99.90;;;;;;5112955;27;20311;-96
2021/07/21 07:53:19;;;;;;;;;;;18.80;99.90;;;;;;5078726;27;19926;-96
2021/07/21 07:55:44;;;;;;;;;;;18.80;99.90;;;;;;5095879;27;19919;-96
2021/07/21 07:58:11;;;;;;;;;;;18.80;99.90;;;;;;5112429;27;19923;-96
2021/07/21 08:00:36;;;;;;;;;;;18.90;99.90;;;;;;5106524;28;19919;-96
2021/07/21 08:03:02;;;;;;;;;;;18.90;99.90;;;;;;5102358;28;19938;-95
2021/07/21 08:05:28;;;;;;;;;;;18.90;99.90;;;;;;5110067;28;19936;-95
2021/07/21 08:07:54;;;;;;;;;;;19.00;99.90;;;;;;5110709;28;19923;-96
2021/07/21 08:10:19;;;;;;;;;;;19.00;99.90;;;;;;5073636;28;19939;-95
2021/07/21 08:12:45;;;;;;;;;;;19.10;99.90;;;;;;5094365;28;19920;-95
2021/07/21 08:15:12;;;;;;;;;;;19.10;99.90;;;;;;5090361;28;20062;-96
2021/07/21 08:17:38;;;;;;;;;;;19.20;99.90;;;;;;5076058;28;19933;-96
2021/07/21 08:20:04;;;;;;;;;;;19.20;99.90;;;;;;5126913;28;19923;-96
2021/07/21 08:22:30;;;;;;;;;;;19.30;99.90;;;;;;5111035;28;20389;-95
2021/07/21 08:24:56;;;;;;;;;;;19.20;99.90;;;;;;5094064;28;19945;-95
2021/07/21 08:27:22;;;;;;;;;;;19.30;99.90;;;;;;5069037;28;20379;-96
2021/07/21 08:29:47;;;;;;;;;;;19.30;99.90;;;;;;5103630;28;19973;-96
2021/07/21 08:32:13;;;;;;;;;;;19.40;99.90;;;;;;5077888;28;19930;-96
2021/07/21 08:34:39;;;;;;;;;;;19.40;99.90;;;;;;5089756;28;19923;-95
2021/07/21 08:37:05;;;;;;;;;;;19.40;99.90;;;;;;5096294;27;19927;-95
2021/07/21 08:39:31;;;;;;;;;;;19.50;99.90;;;;;;5116540;27;20293;-96
2021/07/21 08:41:56;;;;;;;;;;;19.40;99.90;;;;;;5113524;27;19920;-96
2021/07/21 08:44:22;;;;;;;;;;;19.50;99.90;;;;;;5098489;27;19974;-96
2021/07/21 08:46:48;;;;;;;;;;;19.50;99.90;;;;;;5098421;27;20152;-95
2021/07/21 08:49:14;;;;;;;;;;;19.50;99.90;;;;;;5093349;27;20523;-96
2021/07/21 08:51:40;;;;;;;;;;;19.60;99.90;;;;;;5082224;27;20030;-96
2021/07/21 08:54:07;;;;;;;;;;;19.60;99.90;;;;;;5133007;27;19919;-96
2021/07/21 08:56:33;;;;;;;;;;;19.60;99.90;;;;;;5132590;27;19955;-96
2021/07/21 08:58:59;;;;;;;;;;;19.60;99.90;;;;;;5083027;28;19959;-96
2021/07/21 09:01:25;;;;;;;;;;;19.60;99.90;;;;;;5098793;27;19919;-96
2021/07/21 09:03:51;;;;;;;;;;;19.70;99.90;;;;;;5116081;27;19927;-95
2021/07/21 09:06:17;;;;;;;;;;;19.70;99.90;;;;;;5098502;27;20022;-96
2021/07/21 09:08:43;;;;;;;;;;;19.70;99.90;;;;;;5080795;27;20093;-96
2021/07/21 09:11:10;;;;;;;;;;;19.70;99.90;;;;;;5116128;27;19923;-96
2021/07/21 09:13:36;;;;;;;;;;;19.80;99.90;;;;;;5115320;27;19923;-95
2021/07/21 09:16:05;;;;;;;;;;;19.90;99.90;;;;;;5097821;27;20300;-96
2021/07/21 09:18:45;;;;;;;;;;;20.00;99.90;;;;;;5115168;27;20373;-96
2021/07/21 09:21:13;;;;;;;;;;;19.90;99.90;;;;;;5132014;27;19930;-96
2021/07/21 09:23:42;;;;;;;;;;;20.00;99.90;;;;;;5095445;27;20380;-96
2021/07/21 09:26:09;;;;;;;;;;;19.90;99.90;;;;;;5114338;27;19927;-96
2021/07/21 09:28:36;;;;;;;;;;;20.00;99.90;;;;;;5097866;27;19927;-96
2021/07/21 09:31:01;;;;;;;;;;;20.00;99.90;;;;;;5114863;27;19930;-96
2021/07/21 09:33:27;;;;;;;;;;;20.10;99.90;;;;;;5074765;27;20358;-96
2021/07/21 09:35:55;;;;;;;;;;;20.10;99.90;;;;;;5079610;27;20697;-96
2021/07/21 09:38:22;;;;;;;;;;;20.20;99.90;;;;;;5078022;28;19924;-96
2021/07/21 09:40:58;;;;;;;;;;;20.20;99.90;;;;;;5114872;27;19976;-96
2021/07/21 09:43:25;;;;;;;;;;;20.40;99.90;;;;;;5146181;27;19923;-96
2021/07/21 09:45:51;;;;;;;;;;;20.40;99.90;;;;;;5089575;27;20335;-96
2021/07/21 09:48:20;;;;;;;;;;;20.40;99.90;;;;;;5114485;27;19950;-96
2021/07/21 09:50:47;;;;;;;;;;;20.40;99.90;;;;;;5092803;28;19924;-96
2021/07/21 09:53:13;;;;;;;;;;;20.40;99.90;;;;;;5131252;27;19927;-96
2021/07/21 09:55:44;;;;;;;;;;;20.40;99.90;;;;;;5096635;27;19958;-96
2021/07/21 09:58:10;;;;;;;;;;;20.40;99.90;;;;;;5115393;27;20010;-96
2021/07/21 10:00:46;;;;;;;;;;;20.50;99.90;;;;;;5131952;27;19930;-96
2021/07/21 10:03:16;;;;;;;;;;;20.50;99.90;;;;;;5131837;27;20397;-96
2021/07/21 10:06:08;;;;;;;;;;;20.60;99.90;;;;;;5093885;28;19934;-96
2021/07/21 10:08:44;;;;;;;;;;;20.70;99.90;;;;;;5093102;27;20275;-96
2021/07/21 10:11:21;;;;;;;;;;;20.80;99.90;;;;;;5097598;27;19930;-96
2021/07/21 10:13:47;;;;;;;;;;;20.80;99.90;;;;;;5130742;27;19932;-96
2021/07/21 10:16:32;;;;;;;;;;;20.80;99.90;;;;;;5132769;27;19930;-95
2021/07/21 10:19:24;;;;;;;;;;;20.80;99.90;;;;;;5095591;28;20374;-96
2021/07/21 10:21:51;;;;;;;;;;;20.80;99.90;;;;;;5108489;27;19991;-96
2021/07/21 10:24:18;;;;;;;;;;;20.90;99.90;;;;;;5097790;27;19951;-96
2021/07/21 10:26:44;;;;;;;;;;;21.00;99.90;;;;;;5127656;27;20679;-96
2021/07/21 10:29:10;;;;;;;;;;;21.00;99.90;;;;;;5090666;27;19938;-96
2021/07/21 10:31:36;;;;;;;;;;;21.00;99.90;;;;;;5093053;27;20011;-96
2021/07/21 10:34:02;;;;;;;;;;;21.10;99.90;;;;;;5112634;27;20744;-96
2021/07/21 10:36:29;;;;;;;;;;;21.10;99.90;;;;;;5077249;27;19931;-96
2021/07/21 10:38:55;;;;;;;;;;;21.20;99.90;;;;;;5110316;28;20018;-96
2021/07/21 10:41:21;;;;;;;;;;;21.20;99.90;;;;;;5097741;27;19931;-96
2021/07/21 10:43:48;;;;;;;;;;;21.20;99.90;;;;;;5095057;28;19972;-96
2021/07/21 10:46:34;;;;;;;;;;;21.40;99.90;;;;;;5091824;27;19971;-96
2021/07/21 10:49:59;;;;;;;;;;;21.40;99.90;;;;;;5134445;27;20324;-96
2021/07/21 10:52:31;;;;;;;;;;;21.50;99.90;;;;;;5126316;27;19924;-94
2021/07/21 11:00:37;;;;;;;;;;;21.50;99.90;;;;;;5121683;27;19928;-96
2021/07/21 11:03:16;;;;;;;;;;;21.60;99.90;;;;;;5102086;27;19923;-95
2021/07/21 11:05:43;;;;;;;;;;;21.50;99.90;;;;;;5109605;27;20324;-96
2021/07/21 11:08:16;;;;;;;;;;;21.60;99.90;;;;;;5088000;27;20345;-96
2021/07/21 11:10:42;;;;;;;;;;;21.70;99.90;;;;;;5094981;28;20007;-96
2021/07/21 11:13:12;;;;;;;;;;;21.70;99.90;;;;;;5111562;27;20297;-96
2021/07/21 11:15:40;;;;;;;;;;;21.80;99.90;;;;;;5129570;27;20002;-95
2021/07/21 11:18:15;;;;;;;;;;;21.80;99.90;;;;;;5094822;27;20347;-94
2021/07/21 11:21:01;;;;;;;;;;;21.70;99.90;;;;;;5073336;28;22048;-95
2021/07/21 11:23:44;;;;;;;;;;;21.60;99.90;;;;;;5107110;27;19923;-94
2021/07/21 11:26:28;;;;;;;;;;;21.60;99.90;;;;;;5099960;27;20041;-95
2021/07/21 11:28:54;;;;;;;;;;;21.70;99.90;;;;;;5094302;27;19927;-94
2021/07/21 11:31:38;;;;;;;;;;;21.70;99.90;;;;;;5146019;27;20120;-93
2021/07/21 11:34:11;;;;;;;;;;;21.70;99.90;;;;;;5122579;27;20293;-94
2021/07/21 11:36:43;;;;;;;;;;;21.80;99.90;;;;;;5116094;27;19930;-94
2021/07/21 11:39:29;;;;;;;;;;;21.70;99.90;;;;;;5090338;27;20013;-92
2021/07/21 11:41:58;;;;;;;;;;;21.80;99.90;;;;;;5134581;27;19923;-93
2021/07/21 11:44:28;;;;;;;;;;;21.80;99.90;;;;;;5095506;27;19923;-92
2021/07/21 11:46:55;;;;;;;;;;;21.80;99.90;;;;;;5140200;27;20010;-92
2021/07/21 11:49:22;;;;;;;;;;;21.90;99.90;;;;;;5101091;27;19928;-93
2021/07/21 11:51:51;;;;;;;;;;;22.00;99.90;;;;;;5146744;27;19924;-94
2021/07/21 11:54:18;;;;;;;;;;;22.00;99.90;;;;;;5116518;27;20374;-93
2021/07/21 11:56:46;;;;;;;;;;;22.00;99.90;;;;;;5111413;28;19973;-92
2021/07/21 11:59:12;;;;;;;;;;;22.00;99.90;;;;;;5114601;27;19938;-92
2021/07/21 12:01:37;;;;;;;;;;;22.00;99.90;;;;;;5120052;27;19924;-92
2021/07/21 12:04:06;;;;;;;;;;;22.10;99.90;;;;;;5127260;27;19920;-92
2021/07/21 12:06:31;;;;;;;;;;;22.10;99.90;;;;;;5110889;28;19920;-92
2021/07/21 12:08:58;;;;;;;;;;;22.10;99.90;;;;;;5110640;28;19971;-93
2021/07/21 12:11:27;;;;;;;;;;;22.10;99.90;;;;;;5101988;27;20281;-92
2021/07/21 12:14:03;;;;;;;;;;;22.10;99.90;;;;;;5137630;27;20021;-92
2021/07/21 12:16:36;;;;;;;;;;;22.10;99.90;;;;;;5154840;27;19926;-93
2021/07/21 12:19:02;;;;;;;;;;;22.00;99.90;;;;;;5141072;27;19923;-93
2021/07/21 12:21:29;;;;;;;;;;;22.00;99.90;;;;;;5126707;27;19919;-93
2021/07/21 12:23:59;;;;;;;;;;;22.00;99.90;;;;;;5120924;27;19919;-94
2021/07/21 12:26:25;;;;;;;;;;;22.00;99.90;;;;;;5091137;28;19930;-92
2021/07/21 12:28:57;;;;;;;;;;;22.00;99.90;;;;;;5103629;27;19931;-92
2021/07/21 12:31:29;;;;;;;;;;;22.00;99.90;;;;;;5120466;27;19929;-93
2021/07/21 12:34:09;;;;;;;;;;;22.00;99.90;;;;;;5114202;27;19954;-93
2021/07/21 12:36:41;;;;;;;;;;;22.10;99.90;;;;;;5121298;27;20389;-95
2021/07/21 12:39:07;;;;;;;;;;;22.10;99.90;;;;;;5126577;27;19928;-96
2021/07/21 12:41:34;;;;;;;;;;;22.20;99.90;;;;;;5117125;27;19932;-95
2021/07/21 12:43:59;;;;;;;;;;;22.30;99.90;;;;;;5115884;28;19985;-94
2021/07/21 12:46:27;;;;;;;;;;;22.20;99.90;;;;;;5083895;27;19955;-96
2021/07/21 12:48:53;;;;;;;;;;;22.30;99.90;;;;;;5098803;27;20004;-95
2021/07/21 12:51:22;;;;;;;;;;;22.30;99.90;;;;;;5113154;27;19934;-95
2021/07/21 12:53:48;;;;;;;;;;;22.30;99.90;;;;;;5129618;27;19919;-96
2021/07/21 12:56:17;;;;;;;;;;;22.30;99.90;;;;;;5087127;27;19922;-95
2021/07/21 12:58:43;;;;;;;;;;;22.30;99.90;;;;;;5112779;27;19923;-95
2021/07/21 13:01:09;;;;;;;;;;;22.40;99.90;;;;;;5113093;27;20340;-95
2021/07/21 13:03:46;;;;;;;;;;;22.50;99.90;;;;;;5136820;27;19925;-96
2021/07/21 13:06:21;;;;;;;;;;;22.60;99.90;;;;;;5120088;27;20019;-93
2021/07/21 13:08:48;;;;;;;;;;;22.70;99.90;;;;;;5119006;27;19927;-95
2021/07/21 13:11:14;;;;;;;;;;;22.80;99.90;;;;;;5118762;27;19923;-94
2021/07/21 13:13:41;;;;;;;;;;;22.80;99.90;;;;;;5112468;27;20045;-95
2021/07/21 13:16:09;;;;;;;;;;;22.80;99.90;;;;;;5106518;27;19968;-95
2021/07/21 13:18:44;;;;;;;;;;;22.80;99.90;;;;;;5152772;27;19920;-95
2021/07/21 13:21:22;;;;;;;;;;;22.80;99.90;;;;;;5115458;27;19923;-96
2021/07/21 13:23:49;;;;;;;;;;;22.80;99.90;;;;;;5088650;27;19928;-95
2021/07/21 13:26:14;;;;;;;;;;;22.80;99.90;;;;;;5127214;27;20023;-95
2021/07/21 13:28:48;;;;;;;;;;;22.90;99.90;;;;;;5125947;27;20470;-95
2021/07/21 13:31:18;;;;;;;;;;;22.90;99.90;;;;;;5110435;27;19923;-96
2021/07/21 13:33:46;;;;;;;;;;;22.90;99.90;;;;;;5115598;27;19946;-95
2021/07/21 13:36:13;;;;;;;;;;;23.00;99.90;;;;;;5092750;28;19919;-95
2021/07/21 13:38:48;;;;;;;;;;;23.00;99.90;;;;;;5107280;28;19930;-96
2021/07/21 13:41:23;;;;;;;;;;;23.00;99.90;;;;;;5096985;27;19939;-94
2021/07/21 13:43:54;;;;;;;;;;;23.10;99.90;;;;;;5110277;27;20385;-95
2021/07/21 13:46:29;;;;;;;;;;;23.20;99.90;;;;;;5082614;27;20467;-95
2021/07/21 13:49:02;;;;;;;;;;;23.20;99.90;;;;;;5113790;27;20275;-96
2021/07/21 13:51:32;;;;;;;;;;;23.30;99.90;;;;;;5099196;27;20375;-95
2021/07/21 13:53:58;;;;;;;;;;;23.30;99.90;;;;;;5117937;27;19965;-96
2021/07/21 13:56:24;;;;;;;;;;;23.30;99.90;;;;;;5098330;27;19927;-96
2021/07/21 13:58:49;;;;;;;;;;;23.40;99.90;;;;;;5113999;27;20338;-96
2021/07/21 14:01:15;;;;;;;;;;;23.30;99.90;;;;;;5103085;27;19926;-95
2021/07/21 14:03:45;;;;;;;;;;;23.30;99.90;;;;;;5105496;27;20431;-95
2021/07/21 14:06:16;;;;;;;;;;;23.30;99.90;;;;;;5119910;27;20400;-95
2021/07/21 14:08:44;;;;;;;;;;;23.40;99.90;;;;;;5100522;27;19924;-94
2021/07/21 14:11:10;;;;;;;;;;;23.40;99.90;;;;;;5126840;27;19926;-95
2021/07/21 14:13:35;;;;;;;;;;;23.50;99.90;;;;;;5113352;27;20374;-95
2021/07/21 14:16:01;;;;;;;;;;;23.40;99.90;;;;;;5114096;27;20449;-95
2021/07/21 14:18:27;;;;;;;;;;;23.50;99.90;;;;;;5122013;27;20343;-95
2021/07/21 14:20:53;;;;;;;;;;;23.40;99.90;;;;;;5129890;27;19916;-96
2021/07/21 14:23:21;;;;;;;;;;;23.40;99.90;;;;;;5112908;27;20378;-94
2021/07/21 14:25:49;;;;;;;;;;;23.50;99.90;;;;;;5129818;27;20522;-94
2021/07/21 14:28:15;;;;;;;;;;;23.60;99.90;;;;;;5092063;28;19939;-95
2021/07/21 14:30:41;;;;;;;;;;;23.60;99.90;;;;;;5093271;28;20665;-94